Terminal Aerodrome Forecast
Issued by NWS

Home | Current Version | Previous Version | Text Only | Print | Product List | Glossary On
Versions: 1 2 3 4 5 6 7 8 9 10 11 12 13
000
FTUS43 KIND 300533
TAFLAF
TAF
KLAF 300533Z 3006/3106 19002KT P6SM BKN100
     FM300830 18003KT 4SM BR BKN100
     FM301400 23005KT P6SM BKN040
     FM301700 21006KT P6SM VCTS BKN050CB
     FM310200 21001KT P6SM BKN100
      AMD LTD TO CLD VIS AND WIND TIL 301300=

USA.gov is the U.S. government's official web portal to all federal, state and local government web resources and services.